sensor_id;sensor_type;location;lat;lon;timestamp;P1;durP1;ratioP1;P2;durP2;ratioP2
77111;SDS011;66064;50.226;14.344;2024-03-08T00:02:18;51.55;;;46.13;;
77111;SDS011;66064;50.226;14.344;2024-03-08T00:04:46;51.08;;;44.72;;
77111;SDS011;66064;50.226;14.344;2024-03-08T00:07:12;48.80;;;30.92;;
77111;SDS011;66064;50.226;14.344;2024-03-08T00:09:39;57.72;;;51.90;;
77111;SDS011;66064;50.226;14.344;2024-03-08T00:12:06;54.30;;;49.03;;
77111;SDS011;66064;50.226;14.344;2024-03-08T00:14:34;51.78;;;45.28;;
77111;SDS011;66064;50.226;14.344;2024-03-08T00:17:03;53.65;;;47.85;;
77111;SDS011;66064;50.226;14.344;2024-03-08T00:19:29;47.92;;;35.10;;
77111;SDS011;66064;50.226;14.344;2024-03-08T00:21:56;54.70;;;48.45;;
77111;SDS011;66064;50.226;14.344;2024-03-08T00:24:22;55.80;;;49.72;;
77111;SDS011;66064;50.226;14.344;2024-03-08T00:26:50;55.28;;;47.83;;
77111;SDS011;66064;50.226;14.344;2024-03-08T00:29:17;50.45;;;43.25;;
77111;SDS011;66064;50.226;14.344;2024-03-08T00:31:42;53.63;;;47.50;;
77111;SDS011;66064;50.226;14.344;2024-03-08T00:34:09;56.20;;;47.70;;
77111;SDS011;66064;50.226;14.344;2024-03-08T00:36:37;51.97;;;46.60;;
77111;SDS011;66064;50.226;14.344;2024-03-08T00:39:03;57.83;;;46.72;;
77111;SDS011;66064;50.226;14.344;2024-03-08T00:41:32;52.58;;;47.20;;
77111;SDS011;66064;50.226;14.344;2024-03-08T00:43:59;58.47;;;51.53;;
77111;SDS011;66064;50.226;14.344;2024-03-08T00:46:26;52.45;;;47.28;;
77111;SDS011;66064;50.226;14.344;2024-03-08T00:48:54;54.25;;;48.88;;
77111;SDS011;66064;50.226;14.344;2024-03-08T00:51:22;48.65;;;42.67;;
77111;SDS011;66064;50.226;14.344;2024-03-08T00:53:48;53.00;;;47.15;;
77111;SDS011;66064;50.226;14.344;2024-03-08T00:56:15;48.20;;;34.50;;
77111;SDS011;66064;50.226;14.344;2024-03-08T00:58:44;52.92;;;47.42;;
77111;SDS011;66064;50.226;14.344;2024-03-08T01:01:10;53.25;;;47.42;;
77111;SDS011;66064;50.226;14.344;2024-03-08T01:03:36;60.53;;;54.63;;
77111;SDS011;66064;50.226;14.344;2024-03-08T01:06:02;56.53;;;50.05;;
77111;SDS011;66064;50.226;14.344;2024-03-08T01:08:28;50.70;;;45.55;;
77111;SDS011;66064;50.226;14.344;2024-03-08T01:10:54;53.10;;;47.47;;
77111;SDS011;66064;50.226;14.344;2024-03-08T01:13:21;55.80;;;50.50;;
77111;SDS011;66064;50.226;14.344;2024-03-08T01:15:48;48.00;;;42.05;;
77111;SDS011;66064;50.226;14.344;2024-03-08T01:18:14;59.20;;;50.33;;
77111;SDS011;66064;50.226;14.344;2024-03-08T01:20:40;50.85;;;45.67;;
77111;SDS011;66064;50.226;14.344;2024-03-08T01:23:07;49.10;;;43.85;;
77111;SDS011;66064;50.226;14.344;2024-03-08T01:25:33;59.72;;;48.88;;
77111;SDS011;66064;50.226;14.344;2024-03-08T01:28:00;53.28;;;46.72;;
77111;SDS011;66064;50.226;14.344;2024-03-08T01:30:26;58.25;;;37.67;;
77111;SDS011;66064;50.226;14.344;2024-03-08T01:32:53;52.55;;;47.05;;
77111;SDS011;66064;50.226;14.344;2024-03-08T01:35:19;51.60;;;46.72;;
77111;SDS011;66064;50.226;14.344;2024-03-08T01:37:48;54.10;;;38.05;;
77111;SDS011;66064;50.226;14.344;2024-03-08T01:40:16;53.30;;;43.38;;
77111;SDS011;66064;50.226;14.344;2024-03-08T01:42:42;57.88;;;52.00;;
77111;SDS011;66064;50.226;14.344;2024-03-08T01:45:10;56.80;;;42.88;;
77111;SDS011;66064;50.226;14.344;2024-03-08T01:47:36;59.17;;;51.80;;
77111;SDS011;66064;50.226;14.344;2024-03-08T01:50:03;50.45;;;45.22;;
77111;SDS011;66064;50.226;14.344;2024-03-08T01:52:32;55.75;;;48.70;;
77111;SDS011;66064;50.226;14.344;2024-03-08T01:55:00;63.72;;;48.40;;
77111;SDS011;66064;50.226;14.344;2024-03-08T01:57:30;59.88;;;45.80;;
77111;SDS011;66064;50.226;14.344;2024-03-08T01:59:59;51.22;;;42.00;;
77111;SDS011;66064;50.226;14.344;2024-03-08T02:02:32;52.28;;;35.45;;
77111;SDS011;66064;50.226;14.344;2024-03-08T02:05:00;57.65;;;42.25;;
77111;SDS011;66064;50.226;14.344;2024-03-08T02:07:28;51.90;;;42.40;;
77111;SDS011;66064;50.226;14.344;2024-03-08T02:09:55;53.08;;;46.28;;
77111;SDS011;66064;50.226;14.344;2024-03-08T02:12:21;45.42;;;34.10;;
77111;SDS011;66064;50.226;14.344;2024-03-08T02:14:48;60.85;;;46.63;;
77111;SDS011;66064;50.226;14.344;2024-03-08T02:17:15;62.67;;;49.10;;
77111;SDS011;66064;50.226;14.344;2024-03-08T02:19:40;63.00;;;34.92;;
77111;SDS011;66064;50.226;14.344;2024-03-08T02:22:08;51.67;;;43.58;;
77111;SDS011;66064;50.226;14.344;2024-03-08T02:24:35;60.28;;;51.55;;
77111;SDS011;66064;50.226;14.344;2024-03-08T02:27:01;61.83;;;50.88;;
77111;SDS011;66064;50.226;14.344;2024-03-08T02:29:27;56.80;;;40.50;;
77111;SDS011;66064;50.226;14.344;2024-03-08T02:31:54;54.60;;;36.45;;
77111;SDS011;66064;50.226;14.344;2024-03-08T02:34:22;54.42;;;43.72;;
77111;SDS011;66064;50.226;14.344;2024-03-08T02:36:48;59.88;;;47.95;;
77111;SDS011;66064;50.226;14.344;2024-03-08T02:39:15;56.58;;;49.03;;
77111;SDS011;66064;50.226;14.344;2024-03-08T02:41:42;59.00;;;48.47;;
77111;SDS011;66064;50.226;14.344;2024-03-08T02:44:07;54.72;;;47.05;;
77111;SDS011;66064;50.226;14.344;2024-03-08T02:46:35;56.28;;;39.92;;
77111;SDS011;66064;50.226;14.344;2024-03-08T02:49:01;58.72;;;52.30;;
77111;SDS011;66064;50.226;14.344;2024-03-08T02:51:28;64.00;;;56.63;;
77111;SDS011;66064;50.226;14.344;2024-03-08T02:53:56;58.72;;;49.55;;
77111;SDS011;66064;50.226;14.344;2024-03-08T02:56:22;60.28;;;40.75;;
77111;SDS011;66064;50.226;14.344;2024-03-08T02:58:49;54.20;;;48.03;;
77111;SDS011;66064;50.226;14.344;2024-03-08T03:01:15;50.28;;;36.20;;
77111;SDS011;66064;50.226;14.344;2024-03-08T03:03:41;59.00;;;48.80;;
77111;SDS011;66064;50.226;14.344;2024-03-08T03:06:08;60.30;;;46.55;;
77111;SDS011;66064;50.226;14.344;2024-03-08T03:08:35;64.13;;;49.33;;
77111;SDS011;66064;50.226;14.344;2024-03-08T03:11:01;59.15;;;49.33;;
77111;SDS011;66064;50.226;14.344;2024-03-08T03:13:27;60.53;;;51.47;;
77111;SDS011;66064;50.226;14.344;2024-03-08T03:15:55;58.63;;;48.60;;
77111;SDS011;66064;50.226;14.344;2024-03-08T03:18:23;63.78;;;51.97;;
77111;SDS011;66064;50.226;14.344;2024-03-08T03:20:53;64.38;;;38.92;;
77111;SDS011;66064;50.226;14.344;2024-03-08T03:23:19;65.57;;;39.72;;
77111;SDS011;66064;50.226;14.344;2024-03-08T03:25:46;62.40;;;51.47;;
77111;SDS011;66064;50.226;14.344;2024-03-08T03:28:12;63.90;;;56.95;;
77111;SDS011;66064;50.226;14.344;2024-03-08T03:30:45;60.08;;;48.05;;
77111;SDS011;66064;50.226;14.344;2024-03-08T03:33:11;58.45;;;46.78;;
77111;SDS011;66064;50.226;14.344;2024-03-08T03:35:40;63.72;;;52.63;;
77111;SDS011;66064;50.226;14.344;2024-03-08T03:38:08;60.33;;;45.03;;
77111;SDS011;66064;50.226;14.344;2024-03-08T03:40:35;60.80;;;43.42;;
77111;SDS011;66064;50.226;14.344;2024-03-08T03:43:02;64.82;;;43.80;;
77111;SDS011;66064;50.226;14.344;2024-03-08T03:45:29;62.88;;;50.13;;
77111;SDS011;66064;50.226;14.344;2024-03-08T03:47:58;59.55;;;50.78;;
77111;SDS011;66064;50.226;14.344;2024-03-08T03:50:27;57.88;;;47.38;;
77111;SDS011;66064;50.226;14.344;2024-03-08T03:52:53;57.83;;;44.33;;
77111;SDS011;66064;50.226;14.344;2024-03-08T03:55:19;63.40;;;49.85;;
77111;SDS011;66064;50.226;14.344;2024-03-08T03:57:45;61.15;;;46.25;;
77111;SDS011;66064;50.226;14.344;2024-03-08T04:00:12;66.97;;;40.00;;
77111;SDS011;66064;50.226;14.344;2024-03-08T04:02:38;56.20;;;44.50;;
77111;SDS011;66064;50.226;14.344;2024-03-08T04:05:05;55.35;;;47.20;;
77111;SDS011;66064;50.226;14.344;2024-03-08T04:07:33;57.80;;;44.10;;
77111;SDS011;66064;50.226;14.344;2024-03-08T04:10:01;57.00;;;49.08;;
77111;SDS011;66064;50.226;14.344;2024-03-08T04:12:33;57.42;;;45.05;;
77111;SDS011;66064;50.226;14.344;2024-03-08T04:15:00;63.30;;;53.70;;
77111;SDS011;66064;50.226;14.344;2024-03-08T04:17:27;55.83;;;49.38;;
77111;SDS011;66064;50.226;14.344;2024-03-08T04:19:53;59.50;;;44.47;;
77111;SDS011;66064;50.226;14.344;2024-03-08T04:22:20;57.22;;;44.78;;
77111;SDS011;66064;50.226;14.344;2024-03-08T04:24:46;56.10;;;47.70;;
77111;SDS011;66064;50.226;14.344;2024-03-08T04:27:13;59.17;;;48.67;;
77111;SDS011;66064;50.226;14.344;2024-03-08T04:29:44;59.40;;;48.70;;
77111;SDS011;66064;50.226;14.344;2024-03-08T04:32:10;54.67;;;46.67;;
77111;SDS011;66064;50.226;14.344;2024-03-08T04:34:39;64.68;;;50.03;;
77111;SDS011;66064;50.226;14.344;2024-03-08T04:37:06;63.35;;;38.60;;
77111;SDS011;66064;50.226;14.344;2024-03-08T04:39:36;63.80;;;47.97;;
77111;SDS011;66064;50.226;14.344;2024-03-08T04:42:02;64.20;;;49.58;;
77111;SDS011;66064;50.226;14.344;2024-03-08T04:44:32;68.50;;;50.63;;
77111;SDS011;66064;50.226;14.344;2024-03-08T04:46:59;67.32;;;48.75;;
77111;SDS011;66064;50.226;14.344;2024-03-08T04:49:26;68.13;;;48.38;;
77111;SDS011;66064;50.226;14.344;2024-03-08T04:51:53;61.72;;;46.80;;
77111;SDS011;66064;50.226;14.344;2024-03-08T04:54:20;62.25;;;41.83;;
77111;SDS011;66064;50.226;14.344;2024-03-08T04:56:47;61.55;;;53.38;;
77111;SDS011;66064;50.226;14.344;2024-03-08T04:59:13;52.88;;;34.72;;
77111;SDS011;66064;50.226;14.344;2024-03-08T05:01:39;58.05;;;44.20;;
77111;SDS011;66064;50.226;14.344;2024-03-08T05:04:07;59.17;;;42.65;;
77111;SDS011;66064;50.226;14.344;2024-03-08T05:06:32;55.42;;;43.17;;
77111;SDS011;66064;50.226;14.344;2024-03-08T05:08:59;56.25;;;35.60;;
77111;SDS011;66064;50.226;14.344;2024-03-08T05:11:25;59.67;;;48.30;;
77111;SDS011;66064;50.226;14.344;2024-03-08T05:13:53;53.88;;;34.38;;
77111;SDS011;66064;50.226;14.344;2024-03-08T05:16:18;58.38;;;47.80;;
77111;SDS011;66064;50.226;14.344;2024-03-08T05:18:45;60.03;;;45.88;;
77111;SDS011;66064;50.226;14.344;2024-03-08T05:21:12;64.95;;;48.67;;
77111;SDS011;66064;50.226;14.344;2024-03-08T05:23:39;75.90;;;51.72;;
77111;SDS011;66064;50.226;14.344;2024-03-08T05:26:05;67.93;;;54.10;;
77111;SDS011;66064;50.226;14.344;2024-03-08T05:28:32;68.43;;;41.78;;
77111;SDS011;66064;50.226;14.344;2024-03-08T05:30:57;66.68;;;51.20;;
77111;SDS011;66064;50.226;14.344;2024-03-08T05:33:24;62.78;;;55.08;;
77111;SDS011;66064;50.226;14.344;2024-03-08T05:35:50;65.05;;;51.58;;
77111;SDS011;66064;50.226;14.344;2024-03-08T05:38:19;52.45;;;45.70;;
77111;SDS011;66064;50.226;14.344;2024-03-08T05:40:46;54.38;;;47.85;;
77111;SDS011;66064;50.226;14.344;2024-03-08T05:43:12;57.40;;;46.30;;
77111;SDS011;66064;50.226;14.344;2024-03-08T05:45:39;59.67;;;49.83;;
77111;SDS011;66064;50.226;14.344;2024-03-08T05:48:05;60.03;;;50.75;;
77111;SDS011;66064;50.226;14.344;2024-03-08T05:50:34;55.78;;;45.78;;
77111;SDS011;66064;50.226;14.344;2024-03-08T05:53:00;55.05;;;47.03;;
77111;SDS011;66064;50.226;14.344;2024-03-08T05:55:26;46.63;;;33.38;;
77111;SDS011;66064;50.226;14.344;2024-03-08T05:57:52;61.33;;;54.45;;
77111;SDS011;66064;50.226;14.344;2024-03-08T06:00:19;64.47;;;45.92;;
77111;SDS011;66064;50.226;14.344;2024-03-08T06:02:46;61.67;;;49.75;;
77111;SDS011;66064;50.226;14.344;2024-03-08T06:05:18;61.47;;;47.63;;
77111;SDS011;66064;50.226;14.344;2024-03-08T06:07:44;56.25;;;46.72;;
77111;SDS011;66064;50.226;14.344;2024-03-08T06:10:10;65.95;;;57.10;;
77111;SDS011;66064;50.226;14.344;2024-03-08T06:12:38;61.53;;;51.90;;
77111;SDS011;66064;50.226;14.344;2024-03-08T06:15:07;55.28;;;48.05;;
77111;SDS011;66064;50.226;14.344;2024-03-08T06:17:35;59.17;;;49.85;;
77111;SDS011;66064;50.226;14.344;2024-03-08T06:20:02;56.03;;;46.00;;
77111;SDS011;66064;50.226;14.344;2024-03-08T06:22:29;59.30;;;48.22;;
77111;SDS011;66064;50.226;14.344;2024-03-08T06:24:56;57.55;;;43.80;;
77111;SDS011;66064;50.226;14.344;2024-03-08T06:27:22;55.70;;;46.38;;
77111;SDS011;66064;50.226;14.344;2024-03-08T06:29:48;62.65;;;39.28;;
77111;SDS011;66064;50.226;14.344;2024-03-08T06:32:15;55.28;;;34.65;;
77111;SDS011;66064;50.226;14.344;2024-03-08T06:34:44;54.35;;;45.47;;
77111;SDS011;66064;50.226;14.344;2024-03-08T06:37:10;54.90;;;41.28;;
77111;SDS011;66064;50.226;14.344;2024-03-08T06:39:36;53.10;;;43.03;;
77111;SDS011;66064;50.226;14.344;2024-03-08T06:42:03;57.65;;;41.75;;
77111;SDS011;66064;50.226;14.344;2024-03-08T06:44:30;52.25;;;39.30;;
77111;SDS011;66064;50.226;14.344;2024-03-08T06:46:57;52.67;;;39.65;;
77111;SDS011;66064;50.226;14.344;2024-03-08T06:49:24;44.25;;;39.42;;
77111;SDS011;66064;50.226;14.344;2024-03-08T06:51:52;52.90;;;39.33;;
77111;SDS011;66064;50.226;14.344;2024-03-08T06:54:18;49.85;;;36.80;;
77111;SDS011;66064;50.226;14.344;2024-03-08T06:56:45;48.80;;;38.85;;
77111;SDS011;66064;50.226;14.344;2024-03-08T06:59:11;55.17;;;40.33;;
77111;SDS011;66064;50.226;14.344;2024-03-08T07:01:37;45.40;;;35.50;;
77111;SDS011;66064;50.226;14.344;2024-03-08T07:04:04;47.00;;;35.80;;
77111;SDS011;66064;50.226;14.344;2024-03-08T07:06:31;46.65;;;37.95;;
77111;SDS011;66064;50.226;14.344;2024-03-08T07:09:00;45.25;;;33.50;;
77111;SDS011;66064;50.226;14.344;2024-03-08T07:11:26;46.50;;;29.42;;
77111;SDS011;66064;50.226;14.344;2024-03-08T07:13:52;44.08;;;33.63;;
77111;SDS011;66064;50.226;14.344;2024-03-08T07:16:19;39.15;;;30.67;;
77111;SDS011;66064;50.226;14.344;2024-03-08T07:18:47;36.80;;;28.55;;
77111;SDS011;66064;50.226;14.344;2024-03-08T07:21:14;35.60;;;28.63;;
77111;SDS011;66064;50.226;14.344;2024-03-08T07:23:43;48.55;;;35.38;;
77111;SDS011;66064;50.226;14.344;2024-03-08T07:26:19;51.20;;;37.50;;
77111;SDS011;66064;50.226;14.344;2024-03-08T07:28:46;52.70;;;36.17;;
77111;SDS011;66064;50.226;14.344;2024-03-08T07:31:12;53.33;;;36.00;;
77111;SDS011;66064;50.226;14.344;2024-03-08T07:33:59;38.97;;;27.75;;
77111;SDS011;66064;50.226;14.344;2024-03-08T07:36:25;48.72;;;35.38;;
77111;SDS011;66064;50.226;14.344;2024-03-08T07:38:51;45.10;;;34.38;;
77111;SDS011;66064;50.226;14.344;2024-03-08T07:41:18;43.05;;;34.60;;
77111;SDS011;66064;50.226;14.344;2024-03-08T07:43:43;42.53;;;33.33;;
77111;SDS011;66064;50.226;14.344;2024-03-08T07:46:10;33.85;;;24.23;;
77111;SDS011;66064;50.226;14.344;2024-03-08T07:48:36;45.97;;;33.58;;
77111;SDS011;66064;50.226;14.344;2024-03-08T07:51:04;52.08;;;38.13;;
77111;SDS011;66064;50.226;14.344;2024-03-08T07:53:29;50.95;;;39.17;;
77111;SDS011;66064;50.226;14.344;2024-03-08T07:55:56;45.90;;;34.83;;
77111;SDS011;66064;50.226;14.344;2024-03-08T07:58:22;40.45;;;28.00;;
77111;SDS011;66064;50.226;14.344;2024-03-08T08:00:49;33.95;;;26.27;;
77111;SDS011;66064;50.226;14.344;2024-03-08T08:03:15;44.08;;;34.22;;
77111;SDS011;66064;50.226;14.344;2024-03-08T08:05:42;46.05;;;34.97;;
77111;SDS011;66064;50.226;14.344;2024-03-08T08:08:08;48.17;;;34.97;;
77111;SDS011;66064;50.226;14.344;2024-03-08T08:10:36;36.83;;;29.63;;
77111;SDS011;66064;50.226;14.344;2024-03-08T08:13:02;38.13;;;28.45;;
77111;SDS011;66064;50.226;14.344;2024-03-08T08:15:31;31.73;;;24.35;;
77111;SDS011;66064;50.226;14.344;2024-03-08T08:18:00;46.50;;;34.53;;
77111;SDS011;66064;50.226;14.344;2024-03-08T08:20:28;46.28;;;32.65;;
77111;SDS011;66064;50.226;14.344;2024-03-08T08:22:54;45.03;;;33.83;;
77111;SDS011;66064;50.226;14.344;2024-03-08T08:25:21;41.75;;;30.90;;
77111;SDS011;66064;50.226;14.344;2024-03-08T08:27:49;43.47;;;31.02;;
77111;SDS011;66064;50.226;14.344;2024-03-08T08:30:16;47.60;;;32.70;;
77111;SDS011;66064;50.226;14.344;2024-03-08T08:32:42;38.40;;;29.67;;
77111;SDS011;66064;50.226;14.344;2024-03-08T08:35:08;41.45;;;31.42;;
77111;SDS011;66064;50.226;14.344;2024-03-08T08:37:35;42.28;;;31.90;;
77111;SDS011;66064;50.226;14.344;2024-03-08T08:40:03;42.25;;;30.67;;
77111;SDS011;66064;50.226;14.344;2024-03-08T08:42:37;42.00;;;31.95;;
77111;SDS011;66064;50.226;14.344;2024-03-08T08:45:06;43.78;;;29.67;;
77111;SDS011;66064;50.226;14.344;2024-03-08T08:47:36;43.35;;;29.75;;
77111;SDS011;66064;50.226;14.344;2024-03-08T08:50:03;43.00;;;29.60;;
77111;SDS011;66064;50.226;14.344;2024-03-08T08:52:34;47.00;;;34.17;;
77111;SDS011;66064;50.226;14.344;2024-03-08T08:55:00;47.15;;;33.22;;
77111;SDS011;66064;50.226;14.344;2024-03-08T08:57:29;44.90;;;31.50;;
77111;SDS011;66064;50.226;14.344;2024-03-08T08:59:56;42.50;;;30.88;;
77111;SDS011;66064;50.226;14.344;2024-03-08T09:02:22;42.10;;;30.50;;
77111;SDS011;66064;50.226;14.344;2024-03-08T09:04:48;41.50;;;29.13;;
77111;SDS011;66064;50.226;14.344;2024-03-08T09:07:16;35.97;;;27.10;;
77111;SDS011;66064;50.226;14.344;2024-03-08T09:09:44;38.17;;;30.10;;
77111;SDS011;66064;50.226;14.344;2024-03-08T09:12:11;32.60;;;26.15;;
77111;SDS011;66064;50.226;14.344;2024-03-08T09:14:39;37.25;;;29.85;;
77111;SDS011;66064;50.226;14.344;2024-03-08T09:17:07;36.08;;;28.23;;
77111;SDS011;66064;50.226;14.344;2024-03-08T09:19:34;43.67;;;29.90;;
77111;SDS011;66064;50.226;14.344;2024-03-08T09:22:02;38.85;;;29.23;;
77111;SDS011;66064;50.226;14.344;2024-03-08T09:24:30;40.90;;;29.90;;
77111;SDS011;66064;50.226;14.344;2024-03-08T09:26:56;42.55;;;29.70;;
77111;SDS011;66064;50.226;14.344;2024-03-08T09:29:24;39.53;;;29.23;;
77111;SDS011;66064;50.226;14.344;2024-03-08T09:31:50;38.83;;;27.80;;
77111;SDS011;66064;50.226;14.344;2024-03-08T09:34:17;38.88;;;31.23;;
77111;SDS011;66064;50.226;14.344;2024-03-08T09:36:44;37.25;;;27.38;;
77111;SDS011;66064;50.226;14.344;2024-03-08T09:39:10;34.65;;;25.73;;
77111;SDS011;66064;50.226;14.344;2024-03-08T09:41:44;36.45;;;26.75;;
77111;SDS011;66064;50.226;14.344;2024-03-08T09:44:14;42.33;;;29.45;;
77111;SDS011;66064;50.226;14.344;2024-03-08T09:46:44;35.15;;;26.65;;
77111;SDS011;66064;50.226;14.344;2024-03-08T09:49:13;40.20;;;29.73;;
77111;SDS011;66064;50.226;14.344;2024-03-08T09:51:39;42.63;;;32.85;;
77111;SDS011;66064;50.226;14.344;2024-03-08T09:54:06;40.03;;;28.60;;
77111;SDS011;66064;50.226;14.344;2024-03-08T09:56:32;30.52;;;24.50;;
77111;SDS011;66064;50.226;14.344;2024-03-08T09:59:01;37.13;;;29.27;;
77111;SDS011;66064;50.226;14.344;2024-03-08T10:01:30;37.17;;;26.30;;
77111;SDS011;66064;50.226;14.344;2024-03-08T10:03:57;37.00;;;29.02;;
77111;SDS011;66064;50.226;14.344;2024-03-08T10:06:23;37.00;;;27.20;;
77111;SDS011;66064;50.226;14.344;2024-03-08T10:08:50;41.17;;;29.83;;
77111;SDS011;66064;50.226;14.344;2024-03-08T10:11:19;43.25;;;29.70;;
77111;SDS011;66064;50.226;14.344;2024-03-08T10:13:46;38.60;;;26.45;;
77111;SDS011;66064;50.226;14.344;2024-03-08T10:16:16;38.05;;;27.77;;
77111;SDS011;66064;50.226;14.344;2024-03-08T10:18:47;37.63;;;29.00;;
77111;SDS011;66064;50.226;14.344;2024-03-08T10:21:13;41.40;;;26.30;;
77111;SDS011;66064;50.226;14.344;2024-03-08T10:23:41;34.90;;;26.58;;
77111;SDS011;66064;50.226;14.344;2024-03-08T10:26:12;40.42;;;31.60;;
77111;SDS011;66064;50.226;14.344;2024-03-08T10:28:50;33.22;;;25.88;;
77111;SDS011;66064;50.226;14.344;2024-03-08T10:31:18;38.70;;;28.77;;
77111;SDS011;66064;50.226;14.344;2024-03-08T10:33:45;39.03;;;27.38;;
77111;SDS011;66064;50.226;14.344;2024-03-08T10:36:12;34.35;;;27.33;;
77111;SDS011;66064;50.226;14.344;2024-03-08T10:38:40;36.35;;;28.83;;
77111;SDS011;66064;50.226;14.344;2024-03-08T10:41:08;39.45;;;29.52;;
77111;SDS011;66064;50.226;14.344;2024-03-08T10:49:17;33.00;;;22.50;;
77111;SDS011;66064;50.226;14.344;2024-03-08T10:51:43;31.33;;;25.00;;
77111;SDS011;66064;50.226;14.344;2024-03-08T10:54:11;34.88;;;25.67;;
77111;SDS011;66064;50.226;14.344;2024-03-08T10:56:41;35.42;;;26.45;;
77111;SDS011;66064;50.226;14.344;2024-03-08T10:59:08;32.78;;;24.27;;
77111;SDS011;66064;50.226;14.344;2024-03-08T11:01:34;32.22;;;24.27;;
77111;SDS011;66064;50.226;14.344;2024-03-08T11:04:03;36.83;;;25.25;;
77111;SDS011;66064;50.226;14.344;2024-03-08T11:06:31;31.40;;;22.92;;
77111;SDS011;66064;50.226;14.344;2024-03-08T11:09:10;39.63;;;31.13;;
77111;SDS011;66064;50.226;14.344;2024-03-08T11:12:16;35.03;;;27.10;;
77111;SDS011;66064;50.226;14.344;2024-03-08T11:14:52;35.30;;;25.65;;
77111;SDS011;66064;50.226;14.344;2024-03-08T11:17:26;35.50;;;27.48;;
77111;SDS011;66064;50.226;14.344;2024-03-08T11:19:58;34.35;;;26.80;;
77111;SDS011;66064;50.226;14.344;2024-03-08T11:22:27;31.85;;;23.25;;
77111;SDS011;66064;50.226;14.344;2024-03-08T11:25:03;29.63;;;23.40;;
77111;SDS011;66064;50.226;14.344;2024-03-08T11:27:35;33.17;;;24.15;;
77111;SDS011;66064;50.226;14.344;2024-03-08T11:30:06;33.88;;;25.45;;
77111;SDS011;66064;50.226;14.344;2024-03-08T11:32:37;25.35;;;18.15;;
77111;SDS011;66064;50.226;14.344;2024-03-08T11:35:07;34.00;;;24.73;;
77111;SDS011;66064;50.226;14.344;2024-03-08T11:37:48;35.75;;;27.30;;
77111;SDS011;66064;50.226;14.344;2024-03-08T11:40:15;31.65;;;23.73;;
77111;SDS011;66064;50.226;14.344;2024-03-08T11:42:45;34.70;;;27.15;;
77111;SDS011;66064;50.226;14.344;2024-03-08T11:45:18;37.65;;;25.85;;
77111;SDS011;66064;50.226;14.344;2024-03-08T11:47:46;32.13;;;22.08;;
77111;SDS011;66064;50.226;14.344;2024-03-08T11:50:13;31.55;;;25.52;;
77111;SDS011;66064;50.226;14.344;2024-03-08T11:52:40;25.00;;;21.02;;
77111;SDS011;66064;50.226;14.344;2024-03-08T11:55:08;33.25;;;27.83;;
77111;SDS011;66064;50.226;14.344;2024-03-08T11:57:34;29.65;;;25.05;;
77111;SDS011;66064;50.226;14.344;2024-03-08T12:00:02;36.05;;;25.98;;
77111;SDS011;66064;50.226;14.344;2024-03-08T12:02:32;31.13;;;25.40;;
77111;SDS011;66064;50.226;14.344;2024-03-08T12:05:01;30.73;;;22.00;;
77111;SDS011;66064;50.226;14.344;2024-03-08T12:07:29;24.10;;;19.25;;
77111;SDS011;66064;50.226;14.344;2024-03-08T12:12:44;29.80;;;24.40;;
77111;SDS011;66064;50.226;14.344;2024-03-08T12:15:15;27.27;;;23.88;;
77111;SDS011;66064;50.226;14.344;2024-03-08T12:17:41;35.25;;;25.13;;
77111;SDS011;66064;50.226;14.344;2024-03-08T12:20:11;23.95;;;19.65;;
77111;SDS011;66064;50.226;14.344;2024-03-08T12:22:41;27.50;;;21.58;;
77111;SDS011;66064;50.226;14.344;2024-03-08T12:25:08;26.25;;;21.77;;
77111;SDS011;66064;50.226;14.344;2024-03-08T12:27:37;31.83;;;22.65;;
77111;SDS011;66064;50.226;14.344;2024-03-08T12:30:17;24.02;;;19.98;;
77111;SDS011;66064;50.226;14.344;2024-03-08T12:32:56;23.42;;;19.45;;
77111;SDS011;66064;50.226;14.344;2024-03-08T12:35:28;25.10;;;20.83;;
77111;SDS011;66064;50.226;14.344;2024-03-08T12:37:59;22.33;;;16.27;;
77111;SDS011;66064;50.226;14.344;2024-03-08T12:40:26;19.48;;;15.95;;
77111;SDS011;66064;50.226;14.344;2024-03-08T12:42:54;28.95;;;21.90;;
77111;SDS011;66064;50.226;14.344;2024-03-08T12:45:22;21.02;;;15.38;;
77111;SDS011;66064;50.226;14.344;2024-03-08T12:47:55;24.45;;;17.83;;
77111;SDS011;66064;50.226;14.344;2024-03-08T12:50:23;26.98;;;19.08;;
77111;SDS011;66064;50.226;14.344;2024-03-08T12:52:52;24.52;;;19.13;;
77111;SDS011;66064;50.226;14.344;2024-03-08T12:55:19;25.35;;;22.58;;
77111;SDS011;66064;50.226;14.344;2024-03-08T12:57:46;27.92;;;23.00;;
77111;SDS011;66064;50.226;14.344;2024-03-08T13:00:15;26.38;;;19.73;;
77111;SDS011;66064;50.226;14.344;2024-03-08T13:02:49;27.10;;;20.98;;
77111;SDS011;66064;50.226;14.344;2024-03-08T13:05:18;23.33;;;18.73;;
77111;SDS011;66064;50.226;14.344;2024-03-08T13:07:45;23.27;;;20.75;;
77111;SDS011;66064;50.226;14.344;2024-03-08T13:10:15;28.70;;;20.80;;
77111;SDS011;66064;50.226;14.344;2024-03-08T13:15:14;20.02;;;17.25;;
77111;SDS011;66064;50.226;14.344;2024-03-08T13:17:50;25.85;;;21.58;;
77111;SDS011;66064;50.226;14.344;2024-03-08T13:20:20;21.00;;;18.65;;
77111;SDS011;66064;50.226;14.344;2024-03-08T13:22:51;29.35;;;25.35;;
77111;SDS011;66064;50.226;14.344;2024-03-08T13:25:21;27.13;;;21.55;;
77111;SDS011;66064;50.226;14.344;2024-03-08T13:27:51;23.33;;;21.05;;
77111;SDS011;66064;50.226;14.344;2024-03-08T13:30:20;28.23;;;19.60;;
77111;SDS011;66064;50.226;14.344;2024-03-08T13:32:51;24.13;;;21.95;;
77111;SDS011;66064;50.226;14.344;2024-03-08T13:35:20;21.05;;;17.00;;
77111;SDS011;66064;50.226;14.344;2024-03-08T13:37:51;21.13;;;18.98;;
77111;SDS011;66064;50.226;14.344;2024-03-08T13:40:18;16.95;;;14.80;;
77111;SDS011;66064;50.226;14.344;2024-03-08T13:42:48;27.02;;;19.42;;
77111;SDS011;66064;50.226;14.344;2024-03-08T13:45:18;27.17;;;21.65;;
77111;SDS011;66064;50.226;14.344;2024-03-08T13:47:49;25.70;;;21.85;;
77111;SDS011;66064;50.226;14.344;2024-03-08T13:50:19;21.10;;;17.15;;
77111;SDS011;66064;50.226;14.344;2024-03-08T13:52:49;24.50;;;20.60;;
77111;SDS011;66064;50.226;14.344;2024-03-08T13:55:20;21.00;;;18.85;;
77111;SDS011;66064;50.226;14.344;2024-03-08T13:57:53;19.25;;;15.30;;
77111;SDS011;66064;50.226;14.344;2024-03-08T14:00:21;21.27;;;17.65;;
77111;SDS011;66064;50.226;14.344;2024-03-08T14:02:48;18.38;;;16.15;;
77111;SDS011;66064;50.226;14.344;2024-03-08T14:05:15;20.95;;;18.80;;
77111;SDS011;66064;50.226;14.344;2024-03-08T14:07:43;31.30;;;22.15;;
77111;SDS011;66064;50.226;14.344;2024-03-08T14:10:16;23.17;;;20.75;;
77111;SDS011;66064;50.226;14.344;2024-03-08T14:12:50;19.27;;;17.35;;
77111;SDS011;66064;50.226;14.344;2024-03-08T14:15:20;21.73;;;19.60;;
77111;SDS011;66064;50.226;14.344;2024-03-08T14:17:56;31.27;;;24.48;;
77111;SDS011;66064;50.226;14.344;2024-03-08T14:20:23;19.98;;;16.98;;
77111;SDS011;66064;50.226;14.344;2024-03-08T14:22:53;19.80;;;17.92;;
77111;SDS011;66064;50.226;14.344;2024-03-08T14:25:21;19.52;;;17.60;;